KR-0466 weather

Youngdong Beach Tower Apartments Heliports
Busan, Busan Gwang'yeogsi, South Korea

Public forecast

Using degrees Celsius for public forecast. Weather courtesy of forecast.io.

METAR (pilot weather report)

Closest report is Gimhae International Airport, 7.6 nm (14.1 km) NNW. Retrieved 2019/07/15 17:00 UTC (18 minutes ago):

RKPK 151700Z 30001KT 9000 NSC 21/19 Q1010

TAF (pilot weather forecast)

Closest forecast is Gimhae International Airport, 7.6 nm (14.1 km) NNW. Retrieved 2019/07/15 12:00 UTC (5 hours ago):

TAF RKPK 151100Z 1512/1618 12006KT 9999 SCT030 TN22/1521Z TX30/1606Z BECMG 1519/1520 6000 BECMG 1522/1523 9999 BECMG 1601/1602 09008KT